createdAt,value
2017-11-06T00:00:37.738Z,0
2017-11-06T00:01:50.026Z,0
2017-11-06T00:03:02.625Z,0
2017-11-06T00:04:14.896Z,0
2017-11-06T00:05:27.205Z,0
2017-11-06T00:06:39.167Z,0
2017-11-06T00:07:51.754Z,0
2017-11-06T00:09:04.027Z,0
2017-11-06T00:10:16.024Z,0
2017-11-06T00:11:28.644Z,0
2017-11-06T00:12:41.258Z,0
2017-11-06T00:13:53.236Z,0
2017-11-06T00:15:05.854Z,0
2017-11-06T00:16:18.477Z,0
2017-11-06T00:17:31.079Z,0
2017-11-06T00:18:43.664Z,0
2017-11-06T00:19:56.260Z,0
2017-11-06T00:21:08.236Z,0
2017-11-06T00:22:20.857Z,0
2017-11-06T00:23:32.498Z,0
2017-11-06T00:24:44.797Z,0
2017-11-06T00:25:57.090Z,0
2017-11-06T00:27:09.685Z,0
2017-11-06T00:28:22.316Z,0
2017-11-06T00:29:34.609Z,0
2017-11-06T00:30:47.204Z,0
2017-11-06T00:31:59.843Z,0
2017-11-06T00:33:12.448Z,0
2017-11-06T00:34:25.313Z,0
2017-11-06T00:35:37.609Z,0
2017-11-06T00:36:50.226Z,0
2017-11-06T00:38:02.523Z,0
2017-11-06T00:39:15.386Z,0
2017-11-06T00:40:27.691Z,0
2017-11-06T00:41:40.328Z,0
2017-11-06T00:42:52.936Z,0
2017-11-06T00:44:05.200Z,0
2017-11-06T00:45:17.154Z,0
2017-11-06T00:46:29.423Z,0
2017-11-06T00:47:42.037Z,0
2017-11-06T00:48:54.318Z,0
2017-11-06T00:50:06.277Z,0
2017-11-06T00:51:18.573Z,0
2017-11-06T00:52:31.198Z,0
2017-11-06T00:53:43.835Z,0
2017-11-06T00:54:56.440Z,0
2017-11-06T00:56:09.037Z,0
2017-11-06T00:57:21.679Z,0
2017-11-06T00:58:34.298Z,0
2017-11-06T00:59:46.559Z,0
2017-11-06T01:00:58.841Z,0
2017-11-06T01:02:11.129Z,0
2017-11-06T01:03:23.749Z,0
2017-11-06T01:04:36.034Z,0
2017-11-06T01:05:48.674Z,0
2017-11-06T01:07:01.217Z,0
2017-11-06T01:08:13.479Z,0
2017-11-06T01:09:25.782Z,0
2017-11-06T01:10:38.059Z,0
2017-11-06T01:11:50.670Z,0
2017-11-06T01:13:03.296Z,0
2017-11-06T01:14:15.593Z,0
2017-11-06T01:15:27.565Z,0
2017-11-06T01:16:40.185Z,0
2017-11-06T01:17:52.831Z,0
2017-11-06T01:19:05.467Z,0
2017-11-06T01:20:18.100Z,0
2017-11-06T01:21:30.695Z,0
2017-11-06T01:22:42.977Z,0
2017-11-06T01:23:55.597Z,0
2017-11-06T01:25:07.876Z,0
2017-11-06T01:26:19.504Z,0
2017-11-06T01:27:31.768Z,0
2017-11-06T01:28:43.731Z,0
2017-11-06T01:29:56.337Z,0
2017-11-06T01:31:08.959Z,0
2017-11-06T01:32:20.925Z,0
2017-11-06T01:33:33.199Z,0
2017-11-06T01:34:45.790Z,0
2017-11-06T01:35:58.382Z,0
2017-11-06T01:37:10.334Z,0
2017-11-06T01:38:22.293Z,0
2017-11-06T01:39:34.627Z,0
2017-11-06T01:40:46.920Z,0
2017-11-06T01:41:59.194Z,0
2017-11-06T01:43:11.489Z,0
2017-11-06T01:44:24.108Z,0
2017-11-06T01:45:36.697Z,0
2017-11-06T01:46:48.701Z,0
2017-11-06T01:48:00.660Z,0
2017-11-06T01:49:12.985Z,0
2017-11-06T01:50:25.287Z,0
2017-11-06T01:51:37.576Z,0
2017-11-06T01:52:49.851Z,0
2017-11-06T01:54:02.152Z,0
2017-11-06T01:55:14.076Z,0
2017-11-06T01:56:26.708Z,0
2017-11-06T01:57:39.008Z,0
2017-11-06T01:58:51.627Z,0
2017-11-06T02:00:03.929Z,0
2017-11-06T02:01:16.824Z,0
2017-11-06T02:02:28.462Z,0
2017-11-06T02:03:40.741Z,0
2017-11-06T02:04:53.361Z,0
2017-11-06T02:06:05.330Z,0
2017-11-06T02:07:17.620Z,0
2017-11-06T02:08:30.223Z,0
2017-11-06T02:09:42.824Z,0
2017-11-06T02:10:55.389Z,0
2017-11-06T02:12:07.034Z,0
2017-11-06T02:13:18.706Z,0
2017-11-06T02:14:31.009Z,0
2017-11-06T02:15:43.619Z,0
2017-11-06T02:16:56.235Z,0
2017-11-06T02:18:08.868Z,0
2017-11-06T02:19:21.138Z,0
2017-11-06T02:20:33.429Z,0
2017-11-06T02:21:46.049Z,0
2017-11-06T02:22:58.638Z,0
2017-11-06T02:24:11.262Z,0
2017-11-06T02:25:23.852Z,0
2017-11-06T02:26:36.461Z,0
2017-11-06T02:27:49.078Z,0
2017-11-06T02:29:01.387Z,0
2017-11-06T02:30:13.995Z,0
2017-11-06T02:31:26.282Z,0
2017-11-06T02:32:38.928Z,0
2017-11-06T02:33:50.903Z,0
2017-11-06T02:35:03.558Z,0
2017-11-06T02:36:16.140Z,0
2017-11-06T02:37:28.744Z,0
2017-11-06T02:38:41.037Z,0
2017-11-06T02:39:53.333Z,0
2017-11-06T02:41:05.952Z,0
2017-11-06T02:42:18.625Z,0
2017-11-06T02:43:31.220Z,0
2017-11-06T02:44:43.516Z,0
2017-11-06T02:45:55.816Z,0
2017-11-06T02:47:08.412Z,0
2017-11-06T02:48:20.697Z,0
2017-11-06T02:49:33.313Z,0
2017-11-06T02:50:45.940Z,0
2017-11-06T02:51:58.211Z,0
2017-11-06T02:53:09.862Z,0
2017-11-06T02:54:22.158Z,0
2017-11-06T02:55:34.757Z,0
2017-11-06T02:56:47.045Z,0
2017-11-06T02:57:59.641Z,0
2017-11-06T02:59:11.941Z,0
2017-11-06T03:00:24.565Z,0
2017-11-06T03:01:37.178Z,0
2017-11-06T03:02:49.771Z,0
2017-11-06T03:04:02.389Z,0
2017-11-06T03:05:14.690Z,0
2017-11-06T03:06:26.663Z,0
2017-11-06T03:07:39.261Z,0
2017-11-06T03:08:51.555Z,0
2017-11-06T03:10:03.877Z,0
2017-11-06T03:11:16.488Z,0
2017-11-06T03:12:28.438Z,0
2017-11-06T03:13:40.738Z,0
2017-11-06T03:14:53.346Z,0
2017-11-06T03:16:05.931Z,0
2017-11-06T03:17:18.578Z,0
2017-11-06T03:18:30.843Z,0
2017-11-06T03:19:43.429Z,0
2017-11-06T03:20:56.054Z,0
2017-11-06T03:22:08.678Z,0
2017-11-06T03:23:20.653Z,0
2017-11-06T03:24:33.280Z,0
2017-11-06T03:25:45.557Z,0
2017-11-06T03:26:57.839Z,0
2017-11-06T03:28:10.453Z,0
2017-11-06T03:29:23.033Z,0
2017-11-06T03:30:35.324Z,0
2017-11-06T03:31:46.989Z,0
2017-11-06T03:32:59.618Z,0
2017-11-06T03:34:11.582Z,0
2017-11-06T03:35:23.876Z,0
2017-11-06T03:36:36.531Z,0
2017-11-06T03:37:49.126Z,0
2017-11-06T03:39:01.698Z,0
2017-11-06T03:40:14.330Z,0
2017-11-06T03:41:26.913Z,0
2017-11-06T03:42:39.497Z,0
2017-11-06T03:43:51.782Z,0
2017-11-06T03:45:04.399Z,0
2017-11-06T03:46:17.019Z,0
2017-11-06T03:47:29.632Z,0
2017-11-06T03:48:41.604Z,0
2017-11-06T03:49:54.481Z,0
2017-11-06T03:51:07.102Z,0
2017-11-06T03:52:19.087Z,0
2017-11-06T03:53:31.343Z,0
2017-11-06T03:54:43.664Z,0
2017-11-06T03:55:56.288Z,0
2017-11-06T03:57:08.573Z,0
2017-11-06T03:58:21.175Z,0
2017-11-06T03:59:33.794Z,0
2017-11-06T04:00:46.689Z,0
2017-11-06T04:01:59.288Z,0
2017-11-06T04:03:11.901Z,0
2017-11-06T04:04:24.530Z,0
2017-11-06T04:05:37.146Z,0
2017-11-06T04:06:49.722Z,0
2017-11-06T04:08:01.692Z,0
2017-11-06T04:09:13.987Z,0
2017-11-06T04:10:26.299Z,0
2017-11-06T04:11:38.913Z,0
2017-11-06T04:12:51.498Z,0
2017-11-06T04:14:03.459Z,0
2017-11-06T04:15:15.741Z,0
2017-11-06T04:16:27.731Z,0
2017-11-06T04:17:40.021Z,0
2017-11-06T04:18:52.605Z,0
2017-11-06T04:20:05.212Z,0
2017-11-06T04:21:17.818Z,0
2017-11-06T04:22:29.785Z,0
2017-11-06T04:23:42.385Z,0
2017-11-06T04:24:55.002Z,0
2017-11-06T04:26:07.626Z,0
2017-11-06T04:27:19.923Z,0
2017-11-06T04:28:32.516Z,0
2017-11-06T04:29:45.100Z,0
2017-11-06T04:30:57.696Z,0
2017-11-06T04:32:09.978Z,0
2017-11-06T04:33:22.647Z,0
2017-11-06T04:34:34.927Z,0
2017-11-06T04:35:47.541Z,0
2017-11-06T04:36:59.508Z,0
2017-11-06T04:38:11.832Z,0
2017-11-06T04:39:24.104Z,0
2017-11-06T04:40:36.724Z,0
2017-11-06T04:41:49.321Z,0
2017-11-06T04:43:01.937Z,0
2017-11-06T04:44:14.206Z,0
2017-11-06T04:45:26.506Z,0
2017-11-06T04:46:39.123Z,0
2017-11-06T04:47:51.728Z,0
2017-11-06T04:49:04.338Z,0
2017-11-06T04:50:16.636Z,0
2017-11-06T04:51:28.607Z,0
2017-11-06T04:52:40.577Z,0
2017-11-06T04:53:53.176Z,0
2017-11-06T04:55:05.494Z,0
2017-11-06T04:56:17.759Z,0
2017-11-06T04:57:30.391Z,0
2017-11-06T04:58:42.674Z,0
2017-11-06T04:59:54.975Z,0
2017-11-06T05:01:07.242Z,0
2017-11-06T05:02:19.848Z,0
2017-11-06T05:03:32.438Z,0
2017-11-06T05:04:44.708Z,0
2017-11-06T05:05:57.589Z,0
2017-11-06T05:07:10.253Z,0
2017-11-06T05:08:22.540Z,0
2017-11-06T05:09:35.164Z,0
2017-11-06T05:10:47.453Z,0
2017-11-06T05:11:59.724Z,0
2017-11-06T05:13:12.331Z,0
2017-11-06T05:14:24.619Z,0
2017-11-06T05:15:37.248Z,0
2017-11-06T05:16:49.888Z,0
2017-11-06T05:18:02.159Z,0
2017-11-06T05:19:14.433Z,0
2017-11-06T05:20:26.428Z,0
2017-11-06T05:21:38.734Z,0
2017-11-06T05:22:51.367Z,0
2017-11-06T05:24:03.637Z,0
2017-11-06T05:25:16.236Z,0
2017-11-06T05:26:28.849Z,0
2017-11-06T05:27:41.705Z,0
2017-11-06T05:28:54.348Z,0
2017-11-06T05:30:06.970Z,0
2017-11-06T05:31:19.266Z,0
2017-11-06T05:32:31.882Z,0
2017-11-06T05:33:44.181Z,0
2017-11-06T05:34:56.823Z,0
2017-11-06T05:36:09.443Z,0
2017-11-06T05:37:21.719Z,0
2017-11-06T05:38:34.264Z,0
2017-11-06T05:39:46.885Z,0
2017-11-06T05:40:59.194Z,0
2017-11-06T05:42:11.802Z,0
2017-11-06T05:43:23.759Z,0
2017-11-06T05:44:35.717Z,0
2017-11-06T05:45:47.992Z,0
2017-11-06T05:47:00.654Z,0
2017-11-06T05:48:12.635Z,0
2017-11-06T05:49:24.915Z,0
2017-11-06T05:50:37.491Z,0
2017-11-06T05:51:49.787Z,0
2017-11-06T05:53:02.061Z,0
2017-11-06T05:54:14.657Z,0
2017-11-06T05:55:26.959Z,0
2017-11-06T05:56:39.598Z,0
2017-11-06T05:57:52.252Z,0
2017-11-06T05:59:04.520Z,0
2017-11-06T06:00:17.160Z,0
2017-11-06T06:01:29.778Z,0
2017-11-06T06:02:42.093Z,0
2017-11-06T06:03:54.713Z,0
2017-11-06T06:05:06.995Z,0
2017-11-06T06:06:19.266Z,0
2017-11-06T06:07:31.224Z,5
2017-11-06T06:08:43.830Z,5
2017-11-06T06:09:56.474Z,5
2017-11-06T06:11:08.704Z,5
2017-11-06T06:12:21.014Z,5
2017-11-06T06:13:33.291Z,5
2017-11-06T06:14:45.897Z,5
2017-11-06T06:15:58.507Z,10
2017-11-06T06:17:11.122Z,10
2017-11-06T06:18:23.425Z,10
2017-11-06T06:19:35.708Z,10
2017-11-06T06:20:47.985Z,10
2017-11-06T06:22:00.274Z,15
2017-11-06T06:23:12.571Z,15
2017-11-06T06:24:24.548Z,15
2017-11-06T06:25:37.189Z,15
2017-11-06T06:26:49.816Z,15
2017-11-06T06:28:02.431Z,20
2017-11-06T06:29:15.035Z,20
2017-11-06T06:30:27.367Z,20
2017-11-06T06:31:39.972Z,20
2017-11-06T06:32:52.231Z,25
2017-11-06T06:34:04.506Z,25
2017-11-06T06:35:16.805Z,25
2017-11-06T06:36:28.777Z,30
2017-11-06T06:37:40.746Z,30
2017-11-06T06:38:53.020Z,30
2017-11-06T06:40:05.643Z,35
2017-11-06T06:41:18.258Z,35
2017-11-06T06:42:30.200Z,40
2017-11-06T06:43:43.056Z,45
2017-11-06T06:44:55.370Z,50
2017-11-06T06:46:07.960Z,50
2017-11-06T06:47:20.255Z,55
2017-11-06T06:48:32.539Z,55
2017-11-06T06:49:45.134Z,60
2017-11-06T06:50:57.091Z,60
2017-11-06T06:52:09.053Z,60
2017-11-06T06:53:21.673Z,60
2017-11-06T06:54:34.317Z,60
2017-11-06T06:55:46.607Z,60
2017-11-06T06:56:59.206Z,60
2017-11-06T06:58:11.501Z,60
2017-11-06T06:59:24.097Z,60
2017-11-06T07:00:36.366Z,55
2017-11-06T07:01:48.335Z,55
2017-11-06T07:03:00.949Z,55
2017-11-06T07:04:13.551Z,55
2017-11-06T07:05:26.401Z,55
2017-11-06T07:06:38.696Z,55
2017-11-06T07:07:50.956Z,55
2017-11-06T07:09:03.243Z,60
2017-11-06T07:10:15.850Z,65
2017-11-06T07:11:28.477Z,65
2017-11-06T07:12:41.085Z,70
2017-11-06T07:13:53.391Z,70
2017-11-06T07:15:05.670Z,75
2017-11-06T07:16:18.300Z,75
2017-11-06T07:17:30.608Z,80
2017-11-06T07:18:43.191Z,80
2017-11-06T07:19:55.452Z,85
2017-11-06T07:21:07.715Z,85
2017-11-06T07:22:20.004Z,85
2017-11-06T07:23:31.976Z,85
2017-11-06T07:24:44.595Z,90
2017-11-06T07:25:57.176Z,90
2017-11-06T07:27:09.716Z,90
2017-11-06T07:28:22.343Z,95
2017-11-06T07:29:34.959Z,100
2017-11-06T07:30:47.585Z,105
2017-11-06T07:31:59.871Z,110
2017-11-06T07:33:12.191Z,110
2017-11-06T07:34:24.864Z,120
2017-11-06T07:35:37.142Z,125
2017-11-06T07:36:49.757Z,135
2017-11-06T07:38:01.725Z,145
2017-11-06T07:39:13.674Z,150
2017-11-06T07:40:25.969Z,150
2017-11-06T07:41:38.612Z,155
2017-11-06T07:42:51.212Z,150
2017-11-06T07:44:03.504Z,155
2017-11-06T07:45:16.161Z,160
2017-11-06T07:46:28.423Z,175
2017-11-06T07:47:41.023Z,185
2017-11-06T07:48:53.644Z,185
2017-11-06T07:50:05.611Z,200
2017-11-06T07:51:17.898Z,205
2017-11-06T07:52:30.508Z,210
2017-11-06T07:53:42.151Z,210
2017-11-06T07:54:54.772Z,210
2017-11-06T07:56:07.085Z,220
2017-11-06T07:57:19.727Z,230
2017-11-06T07:58:31.686Z,230
2017-11-06T07:59:43.978Z,215
2017-11-06T08:00:56.575Z,210
2017-11-06T08:02:08.873Z,195
2017-11-06T08:03:20.864Z,190
2017-11-06T08:04:33.159Z,205
2017-11-06T08:05:45.435Z,210
2017-11-06T08:06:57.732Z,230
2017-11-06T08:08:10.375Z,225
2017-11-06T08:09:22.693Z,220
2017-11-06T08:10:34.643Z,225
2017-11-06T08:11:47.256Z,240
2017-11-06T08:12:59.854Z,245
2017-11-06T08:14:12.155Z,255
2017-11-06T08:15:24.093Z,250
2017-11-06T08:16:36.418Z,245
2017-11-06T08:17:48.395Z,210
2017-11-06T08:19:00.701Z,185
2017-11-06T08:20:12.976Z,155
2017-11-06T08:21:25.272Z,145
2017-11-06T08:22:37.870Z,140
2017-11-06T08:23:50.489Z,130
2017-11-06T08:25:02.801Z,155
2017-11-06T08:26:15.108Z,180
2017-11-06T08:27:27.757Z,215
2017-11-06T08:28:40.042Z,205
2017-11-06T08:29:52.323Z,170
2017-11-06T08:31:04.287Z,190
2017-11-06T08:32:16.583Z,195
2017-11-06T08:33:29.196Z,165
2017-11-06T08:34:41.803Z,155
2017-11-06T08:35:54.420Z,150
2017-11-06T08:37:06.719Z,160
2017-11-06T08:38:19.012Z,175
2017-11-06T08:39:31.299Z,185
2017-11-06T08:40:43.877Z,215
2017-11-06T08:41:56.182Z,235
2017-11-06T08:43:08.819Z,245
2017-11-06T08:44:21.132Z,250
2017-11-06T08:45:33.106Z,255
2017-11-06T08:46:45.382Z,265
2017-11-06T08:47:58.010Z,270
2017-11-06T08:49:10.301Z,265
2017-11-06T08:50:22.593Z,275
2017-11-06T08:51:35.194Z,295
2017-11-06T08:52:47.791Z,290
2017-11-06T08:53:59.730Z,290
2017-11-06T08:55:12.008Z,290
2017-11-06T08:56:24.624Z,280
2017-11-06T08:57:36.917Z,275
2017-11-06T08:58:49.529Z,265
2017-11-06T09:00:01.159Z,260
2017-11-06T09:01:13.150Z,260
2017-11-06T09:02:25.832Z,255
2017-11-06T09:03:38.438Z,270
2017-11-06T09:04:51.044Z,250
2017-11-06T09:06:03.311Z,225
2017-11-06T09:07:14.960Z,195
2017-11-06T09:08:27.252Z,175
2017-11-06T09:09:39.533Z,155
2017-11-06T09:10:52.144Z,140
2017-11-06T09:12:04.119Z,140
2017-11-06T09:13:16.416Z,150
2017-11-06T09:14:29.034Z,175
2017-11-06T09:15:41.652Z,180
2017-11-06T09:16:54.250Z,195
2017-11-06T09:18:06.546Z,215
2017-11-06T09:19:18.842Z,240
2017-11-06T09:20:31.155Z,260
2017-11-06T09:21:43.456Z,285
2017-11-06T09:22:56.043Z,300
2017-11-06T09:24:08.638Z,310
2017-11-06T09:25:20.917Z,315
2017-11-06T09:26:33.193Z,310
2017-11-06T09:27:45.807Z,310
2017-11-06T09:28:58.103Z,310
2017-11-06T09:30:10.058Z,315
2017-11-06T09:31:22.341Z,320
2017-11-06T09:32:34.644Z,320
2017-11-06T09:33:46.935Z,320
2017-11-06T09:34:59.277Z,320
2017-11-06T09:36:11.505Z,325
2017-11-06T09:37:24.122Z,330
2017-11-06T09:38:36.436Z,335
2017-11-06T09:39:49.045Z,345
2017-11-06T09:41:01.655Z,345
2017-11-06T09:42:13.938Z,335
2017-11-06T09:43:26.530Z,330
2017-11-06T09:44:38.825Z,325
2017-11-06T09:45:51.464Z,320
2017-11-06T09:47:03.767Z,315
2017-11-06T09:48:16.030Z,310
2017-11-06T09:49:28.325Z,300
2017-11-06T09:50:40.304Z,295
2017-11-06T09:51:51.946Z,290
2017-11-06T09:53:04.217Z,280
2017-11-06T09:54:16.516Z,270
2017-11-06T09:55:29.125Z,255
2017-11-06T09:56:41.727Z,245
2017-11-06T09:57:54.349Z,240
2017-11-06T09:59:06.867Z,240
2017-11-06T10:00:19.169Z,240
2017-11-06T10:01:31.761Z,230
2017-11-06T10:02:44.035Z,210
2017-11-06T10:03:55.976Z,200
2017-11-06T10:05:08.597Z,180
2017-11-06T10:06:20.897Z,165
2017-11-06T10:07:33.193Z,150
2017-11-06T10:08:45.513Z,145
2017-11-06T10:09:58.106Z,140
2017-11-06T10:11:10.054Z,135
2017-11-06T10:12:22.349Z,135
2017-11-06T10:13:34.943Z,135
2017-11-06T10:14:47.549Z,140
2017-11-06T10:15:59.883Z,145
2017-11-06T10:17:12.496Z,155
2017-11-06T10:18:25.129Z,155
2017-11-06T10:19:37.735Z,170
2017-11-06T10:20:50.033Z,165
2017-11-06T10:22:02.015Z,165
2017-11-06T10:23:14.327Z,165
2017-11-06T10:24:26.920Z,165
2017-11-06T10:25:39.203Z,170
2017-11-06T10:26:51.794Z,165
2017-11-06T10:28:04.394Z,170
2017-11-06T10:29:16.678Z,165
2017-11-06T10:30:28.982Z,165
2017-11-06T10:31:41.629Z,170
2017-11-06T10:32:54.276Z,170
2017-11-06T10:34:06.893Z,170
2017-11-06T10:35:18.880Z,175
2017-11-06T10:36:31.162Z,175
2017-11-06T10:37:43.783Z,175
2017-11-06T10:38:56.079Z,175
2017-11-06T10:40:08.366Z,175
2017-11-06T10:41:20.971Z,175
2017-11-06T10:42:32.967Z,180
2017-11-06T10:43:44.933Z,175
2017-11-06T10:44:57.571Z,175
2017-11-06T10:46:09.550Z,170
2017-11-06T10:47:22.142Z,170
2017-11-06T10:48:34.762Z,170
2017-11-06T10:49:47.046Z,170
2017-11-06T10:50:59.313Z,165
2017-11-06T10:52:11.277Z,165
2017-11-06T10:53:23.869Z,165
2017-11-06T10:54:36.498Z,165
2017-11-06T10:55:49.139Z,165
2017-11-06T10:57:01.418Z,160
2017-11-06T10:58:13.373Z,160
2017-11-06T10:59:26.022Z,160
2017-11-06T11:00:38.329Z,160
2017-11-06T11:01:49.970Z,160
2017-11-06T11:03:02.567Z,165
2017-11-06T11:04:15.179Z,165
2017-11-06T11:05:27.801Z,165
2017-11-06T11:06:40.108Z,165
2017-11-06T11:07:52.724Z,165
2017-11-06T11:09:05.342Z,165
2017-11-06T11:10:16.991Z,170
2017-11-06T11:11:29.611Z,165
2017-11-06T11:12:41.946Z,165
2017-11-06T11:13:54.553Z,165
2017-11-06T11:15:07.187Z,165
2017-11-06T11:16:19.486Z,155
2017-11-06T11:17:31.758Z,155
2017-11-06T11:18:44.427Z,155
2017-11-06T11:19:56.756Z,160
2017-11-06T11:21:09.055Z,160
2017-11-06T11:22:21.668Z,165
2017-11-06T11:23:34.246Z,155
2017-11-06T11:24:46.534Z,155
2017-11-06T11:25:58.534Z,160
2017-11-06T11:27:10.825Z,155
2017-11-06T11:28:23.117Z,160
2017-11-06T11:29:35.421Z,165
2017-11-06T11:30:47.731Z,175
2017-11-06T11:32:00.355Z,180
2017-11-06T11:33:12.659Z,185
2017-11-06T11:34:24.928Z,185
2017-11-06T11:35:36.907Z,185
2017-11-06T11:36:49.520Z,180
2017-11-06T11:38:02.115Z,180
2017-11-06T11:39:14.725Z,175
2017-11-06T11:40:27.009Z,180
2017-11-06T11:41:39.002Z,180
2017-11-06T11:42:51.298Z,180
2017-11-06T11:44:03.894Z,180
2017-11-06T11:45:16.153Z,180
2017-11-06T11:46:28.427Z,175
2017-11-06T11:47:40.396Z,170
2017-11-06T11:48:52.993Z,170
2017-11-06T11:50:05.273Z,165
2017-11-06T11:51:17.568Z,165
2017-11-06T11:52:30.188Z,165
2017-11-06T11:53:42.505Z,165
2017-11-06T11:54:55.126Z,165
2017-11-06T11:56:07.098Z,165
2017-11-06T11:57:19.367Z,165
2017-11-06T11:58:31.562Z,160
2017-11-06T11:59:44.166Z,160
2017-11-06T12:00:56.436Z,160
2017-11-06T12:02:08.778Z,160
2017-11-06T12:03:21.079Z,155
2017-11-06T12:04:33.360Z,155
2017-11-06T12:05:45.990Z,160
2017-11-06T12:06:57.958Z,160
2017-11-06T12:08:10.232Z,160
2017-11-06T12:09:22.541Z,160
2017-11-06T12:10:34.518Z,155
2017-11-06T12:11:47.149Z,155
2017-11-06T12:12:59.789Z,155
2017-11-06T12:14:12.430Z,155
2017-11-06T12:15:24.729Z,155
2017-11-06T12:16:37.019Z,155
2017-11-06T12:17:49.319Z,155
2017-11-06T12:19:01.921Z,155
2017-11-06T12:20:14.226Z,160
2017-11-06T12:21:26.508Z,160
2017-11-06T12:22:38.452Z,155
2017-11-06T12:23:51.075Z,155
2017-11-06T12:25:03.670Z,155
2017-11-06T12:26:15.959Z,155
2017-11-06T12:27:28.580Z,155
2017-11-06T12:28:41.182Z,150
2017-11-06T12:29:53.502Z,150
2017-11-06T12:31:05.496Z,145
2017-11-06T12:32:18.083Z,145
2017-11-06T12:33:30.336Z,145
2017-11-06T12:34:42.937Z,145
2017-11-06T12:35:55.573Z,145
2017-11-06T12:37:07.568Z,145
2017-11-06T12:38:20.173Z,145
2017-11-06T12:39:32.819Z,145
2017-11-06T12:40:45.115Z,145
2017-11-06T12:41:57.431Z,145
2017-11-06T12:43:09.706Z,145
2017-11-06T12:44:22.325Z,140
2017-11-06T12:45:34.286Z,140
2017-11-06T12:46:46.888Z,140
2017-11-06T12:47:59.476Z,140
2017-11-06T12:49:12.076Z,140
2017-11-06T12:50:24.678Z,135
2017-11-06T12:51:36.663Z,135
2017-11-06T12:52:49.283Z,135
2017-11-06T12:54:01.241Z,135
2017-11-06T12:55:13.888Z,130
2017-11-06T12:56:26.509Z,135
2017-11-06T12:57:39.132Z,135
2017-11-06T12:58:51.448Z,130
2017-11-06T13:00:04.040Z,130
2017-11-06T13:01:16.654Z,130
2017-11-06T13:02:29.259Z,130
2017-11-06T13:03:41.226Z,130
2017-11-06T13:04:53.201Z,135
2017-11-06T13:06:05.147Z,135
2017-11-06T13:07:17.781Z,135
2017-11-06T13:08:30.390Z,135
2017-11-06T13:09:42.683Z,130
2017-11-06T13:10:54.968Z,130
2017-11-06T13:12:07.229Z,130
2017-11-06T13:13:19.871Z,130
2017-11-06T13:14:32.180Z,125
2017-11-06T13:15:44.826Z,125
2017-11-06T13:16:56.782Z,125
2017-11-06T13:18:09.100Z,125
2017-11-06T13:19:21.726Z,125
2017-11-06T13:20:33.991Z,125
2017-11-06T13:21:46.290Z,120
2017-11-06T13:22:58.936Z,120
2017-11-06T13:24:11.195Z,120
2017-11-06T13:25:23.470Z,120
2017-11-06T13:26:35.773Z,120
2017-11-06T13:27:48.417Z,120
2017-11-06T13:29:00.364Z,115
2017-11-06T13:30:12.006Z,115
2017-11-06T13:31:24.579Z,115
2017-11-06T13:32:36.549Z,115
2017-11-06T13:33:48.226Z,115
2017-11-06T13:35:00.515Z,115
2017-11-06T13:36:13.127Z,115
2017-11-06T13:37:25.384Z,115
2017-11-06T13:38:37.643Z,115
2017-11-06T13:39:49.900Z,115
2017-11-06T13:41:01.843Z,115
2017-11-06T13:42:14.462Z,115
2017-11-06T13:43:26.784Z,110
2017-11-06T13:44:39.383Z,110
2017-11-06T13:45:51.682Z,110
2017-11-06T13:47:04.013Z,105
2017-11-06T13:48:15.667Z,95
2017-11-06T13:49:28.005Z,90
2017-11-06T13:50:40.639Z,85
2017-11-06T13:51:53.224Z,85
2017-11-06T13:53:05.850Z,85
2017-11-06T13:54:18.461Z,85
2017-11-06T13:55:30.744Z,95
2017-11-06T13:56:43.038Z,95
2017-11-06T13:57:55.360Z,95
2017-11-06T13:59:08.005Z,100
2017-11-06T14:00:20.651Z,100
2017-11-06T14:01:33.267Z,100
2017-11-06T14:02:45.542Z,100
2017-11-06T14:03:58.126Z,100
2017-11-06T14:05:10.730Z,105
2017-11-06T14:06:23.331Z,105
2017-11-06T14:07:35.646Z,105
2017-11-06T14:08:48.245Z,105
2017-11-06T14:10:00.862Z,105
2017-11-06T14:11:12.862Z,105
2017-11-06T14:12:24.857Z,105
2017-11-06T14:13:37.477Z,105
2017-11-06T14:14:50.095Z,100
2017-11-06T14:16:02.420Z,95
2017-11-06T14:17:14.685Z,95
2017-11-06T14:18:26.961Z,90
2017-11-06T14:19:38.929Z,90
2017-11-06T14:20:51.240Z,85
2017-11-06T14:22:03.836Z,85
2017-11-06T14:23:16.126Z,90
2017-11-06T14:24:28.118Z,90
2017-11-06T14:25:40.383Z,80
2017-11-06T14:26:53.006Z,80
2017-11-06T14:28:04.948Z,75
2017-11-06T14:29:17.571Z,75
2017-11-06T14:30:29.872Z,75
2017-11-06T14:31:42.152Z,75
2017-11-06T14:32:54.406Z,70
2017-11-06T14:34:06.372Z,70
2017-11-06T14:35:18.646Z,70
2017-11-06T14:36:30.946Z,70
2017-11-06T14:37:43.238Z,65
2017-11-06T14:38:55.534Z,65
2017-11-06T14:40:07.482Z,65
2017-11-06T14:41:19.766Z,60
2017-11-06T14:42:32.340Z,60
2017-11-06T14:43:44.944Z,60
2017-11-06T14:44:56.944Z,60
2017-11-06T14:46:09.231Z,55
2017-11-06T14:47:21.856Z,55
2017-11-06T14:48:34.128Z,55
2017-11-06T14:49:46.424Z,50
2017-11-06T14:50:58.713Z,50
2017-11-06T14:52:10.984Z,50
2017-11-06T14:53:23.277Z,45
2017-11-06T14:54:35.930Z,45
2017-11-06T14:55:48.196Z,45
2017-11-06T14:57:00.816Z,40
2017-11-06T14:58:13.442Z,40
2017-11-06T14:59:26.063Z,40
2017-11-06T15:00:38.358Z,40
2017-11-06T15:01:50.993Z,35
2017-11-06T15:03:03.291Z,35
2017-11-06T15:04:15.894Z,35
2017-11-06T15:05:28.207Z,30
2017-11-06T15:06:40.483Z,30
2017-11-06T15:07:53.080Z,30
2017-11-06T15:09:05.680Z,25
2017-11-06T15:10:18.300Z,25
2017-11-06T15:11:30.594Z,25
2017-11-06T15:12:42.885Z,25
2017-11-06T15:13:54.848Z,20
2017-11-06T15:15:07.127Z,20
2017-11-06T15:16:19.744Z,20
2017-11-06T15:17:32.047Z,15
2017-11-06T15:18:44.670Z,15
2017-11-06T15:19:56.943Z,15
2017-11-06T15:21:09.543Z,15
2017-11-06T15:22:22.179Z,10
2017-11-06T15:23:34.773Z,10
2017-11-06T15:24:47.088Z,10
2017-11-06T15:25:59.363Z,10
2017-11-06T15:27:12.011Z,10
2017-11-06T15:28:24.605Z,5
2017-11-06T15:29:36.874Z,5
2017-11-06T15:30:48.823Z,5
2017-11-06T15:32:00.795Z,5
2017-11-06T15:33:13.111Z,5
2017-11-06T15:34:25.736Z,5
2017-11-06T15:35:38.357Z,5
2017-11-06T15:36:50.976Z,0
2017-11-06T15:38:03.601Z,0
2017-11-06T15:39:16.258Z,0
2017-11-06T15:40:28.538Z,0
2017-11-06T15:41:41.134Z,0
2017-11-06T15:42:53.772Z,0
2017-11-06T15:44:06.395Z,0
2017-11-06T15:45:19.015Z,0
2017-11-06T15:46:31.613Z,0
2017-11-06T15:47:43.905Z,0
2017-11-06T15:48:56.531Z,0
2017-11-06T15:50:09.168Z,0
2017-11-06T15:51:21.454Z,0
2017-11-06T15:52:34.092Z,0
2017-11-06T15:53:46.380Z,0
2017-11-06T15:54:58.987Z,0
2017-11-06T15:56:10.982Z,0
2017-11-06T15:57:23.570Z,0
2017-11-06T15:58:35.873Z,0
2017-11-06T15:59:48.172Z,0
2017-11-06T16:01:00.739Z,0
2017-11-06T16:02:13.052Z,0
2017-11-06T16:03:25.685Z,0
2017-11-06T16:04:38.274Z,0
2017-11-06T16:05:50.898Z,0
2017-11-06T16:07:03.192Z,0
2017-11-06T16:08:15.489Z,0
2017-11-06T16:09:28.107Z,0
2017-11-06T16:10:40.056Z,0
2017-11-06T16:11:52.698Z,0
2017-11-06T16:13:04.671Z,0
2017-11-06T16:14:17.270Z,0
2017-11-06T16:15:29.902Z,0
2017-11-06T16:16:42.509Z,0
2017-11-06T16:17:55.108Z,0
2017-11-06T16:19:07.424Z,0
2017-11-06T16:20:19.392Z,0
2017-11-06T16:21:31.992Z,0
2017-11-06T16:22:43.958Z,0
2017-11-06T16:23:56.562Z,0
2017-11-06T16:25:08.821Z,0
2017-11-06T16:26:21.123Z,0
2017-11-06T16:27:33.398Z,0
2017-11-06T16:28:46.015Z,0
2017-11-06T16:29:58.020Z,0
2017-11-06T16:31:10.306Z,0
2017-11-06T16:32:22.915Z,0
2017-11-06T16:33:35.200Z,0
2017-11-06T16:34:47.469Z,0
2017-11-06T16:35:59.741Z,0
2017-11-06T16:37:12.034Z,0
2017-11-06T16:38:24.331Z,0
2017-11-06T16:39:36.326Z,0
2017-11-06T16:40:48.618Z,0
2017-11-06T16:42:01.243Z,0
2017-11-06T16:43:13.854Z,0
2017-11-06T16:44:26.134Z,0
2017-11-06T16:45:38.403Z,0
2017-11-06T16:46:50.675Z,0
2017-11-06T16:48:03.297Z,0
2017-11-06T16:49:15.571Z,0
2017-11-06T16:50:27.537Z,0
2017-11-06T16:51:39.812Z,0
2017-11-06T16:52:52.442Z,0
2017-11-06T16:54:05.045Z,0
2017-11-06T16:55:17.644Z,0
2017-11-06T16:56:29.662Z,0
2017-11-06T16:57:42.264Z,0
2017-11-06T16:58:54.556Z,0
2017-11-06T17:00:06.898Z,0
2017-11-06T17:01:18.544Z,0
2017-11-06T17:02:31.168Z,0
2017-11-06T17:03:43.753Z,0
2017-11-06T17:04:56.376Z,0
2017-11-06T17:06:08.022Z,0
2017-11-06T17:07:20.276Z,0
2017-11-06T17:08:32.870Z,0
2017-11-06T17:09:44.843Z,0
2017-11-06T17:10:57.158Z,0
2017-11-06T17:12:09.754Z,0
2017-11-06T17:13:22.022Z,0
2017-11-06T17:14:34.298Z,0
2017-11-06T17:15:46.893Z,0